Time;durP1;ratioP1;P1;durP2;ratioP2;P2;SDS_P1;SDS_P2;PMS_P1;PMS_P2;Temp;Humidity;BMP_temperature;BMP_pressure;BME280_temperature;BME280_humidity;BME280_pressure;Samples;Min_cycle;Max_cycle;Signal;HPM_P1;HPM_P2
2021/12/06 00:01:59;;;;;;;1.00;1.00;;;;;;;3.83;68.33;99612.50;102954;1317;94474;-80
2021/12/06 00:04:31;;;;;;;1.00;1.00;;;;;;;3.84;67.94;99615.48;102701;1316;109933;-80
2021/12/06 00:07:02;;;;;;;1.00;1.00;;;;;;;3.83;68.09;99618.11;102746;1315;137755;-80
2021/12/06 00:09:31;;;;;;;1.00;1.00;;;;;;;3.89;68.03;99620.52;102929;1315;94356;-80
2021/12/06 00:12:01;;;;;;;0.90;0.90;;;;;;;3.89;68.22;99619.10;102780;1315;138053;-81
2021/12/06 00:14:34;;;;;;;1.10;1.10;;;;;;;3.98;68.03;99618.46;102918;1311;107935;-80
2021/12/06 00:17:05;;;;;;;1.10;1.10;;;;;;;4.01;67.80;99625.65;102757;1316;136950;-80
2021/12/06 00:19:34;;;;;;;1.00;1.00;;;;;;;4.07;67.81;99625.39;102842;1316;94425;-80
2021/12/06 00:22:05;;;;;;;1.00;1.00;;;;;;;4.15;67.44;99624.58;102899;1314;94290;-80
2021/12/06 00:24:33;;;;;;;1.00;1.00;;;;;;;4.18;67.15;99624.55;102555;1319;137053;-80
2021/12/06 00:27:02;;;;;;;1.00;1.00;;;;;;;4.20;67.17;99623.65;102850;1315;107495;-81
2021/12/06 00:29:30;;;;;;;1.00;1.00;;;;;;;4.28;67.00;99622.84;102762;1316;138278;-80
2021/12/06 00:31:58;;;;;;;0.90;0.90;;;;;;;4.32;66.82;99628.06;102957;1316;95117;-81
2021/12/06 00:34:33;;;;;;;1.00;1.00;;;;;;;4.28;66.47;99627.23;102849;1316;108428;-80
2021/12/06 00:37:17;;;;;;;0.90;0.90;;;;;;;4.19;66.95;99625.05;102501;1315;138267;-80
2021/12/06 00:39:52;;;;;;;1.00;1.00;;;;;;;4.29;66.80;99625.29;102468;1316;95486;-81
2021/12/06 00:42:22;;;;;;;1.10;1.10;;;;;;;4.33;66.68;99626.82;102234;1316;137968;-80
2021/12/06 00:44:52;;;;;;;1.10;1.10;;;;;;;4.33;66.49;99633.85;102630;1315;107874;-81
2021/12/06 00:47:21;;;;;;;0.90;0.90;;;;;;;4.33;66.47;99636.66;102741;1317;137923;-80
2021/12/06 00:49:51;;;;;;;1.00;1.00;;;;;;;4.39;66.03;99637.98;102881;1316;94677;-81
2021/12/06 00:52:24;;;;;;;1.10;1.10;;;;;;;4.34;66.32;99638.23;102884;1317;94319;-80
2021/12/06 00:54:52;;;;;;;1.10;1.10;;;;;;;4.33;66.47;99645.97;102445;1315;137231;-80
2021/12/06 00:57:23;;;;;;;1.10;1.10;;;;;;;4.37;66.22;99649.09;102365;1316;106120;-80
2021/12/06 00:59:52;;;;;;;0.90;0.90;;;;;;;4.33;66.45;99647.38;102641;1318;138792;-79
2021/12/06 01:02:20;;;;;;;1.00;1.00;;;;;;;4.26;66.49;99649.22;102383;1317;94377;-80
2021/12/06 01:04:49;;;;;;;0.90;0.90;;;;;;;4.27;66.30;99649.21;102614;1316;107789;-81
2021/12/06 01:07:18;;;;;;;0.90;0.90;;;;;;;4.27;66.40;99644.29;102782;1317;137582;-81
2021/12/06 01:09:53;;;;;;;0.90;0.90;;;;;;;4.21;66.53;99641.55;102952;1315;94331;-80
2021/12/06 01:12:21;;;;;;;0.90;0.90;;;;;;;4.15;66.72;99632.85;102593;1316;136384;-80
2021/12/06 01:14:49;;;;;;;1.10;1.10;;;;;;;4.12;66.74;99628.48;102501;1316;105731;-81
2021/12/06 01:17:17;;;;;;;1.00;1.00;;;;;;;4.12;66.78;99632.19;102688;1313;138026;-80
2021/12/06 01:19:45;;;;;;;1.00;1.00;;;;;;;4.16;66.90;99628.80;102835;1317;94604;-82
2021/12/06 01:22:33;;;;;;;1.00;1.00;;;;;;;4.19;66.58;99632.61;102779;1316;94311;-79
2021/12/06 01:25:05;;;;;;;1.00;1.00;;;;;;;4.02;66.79;99636.16;102318;1317;136826;-80
2021/12/06 01:30:50;;;;;;;1.00;1.00;;;;;;;3.92;67.58;99632.25;102117;1317;138129;-79
2021/12/06 01:41:38;;;;;;;1.00;1.00;;;;;;;3.68;68.06;99649.20;102614;1317;138376;-80
2021/12/06 01:44:12;;;;;;;1.00;1.00;;;;;;;3.79;68.13;99656.45;102735;1319;94482;-81
2021/12/06 01:47:06;;;;;;;0.90;0.90;;;;;;;3.88;67.92;99658.98;102737;1315;109378;-80
2021/12/06 01:50:06;;;;;;;1.00;1.00;;;;;;;3.94;67.56;99662.77;102842;1314;108420;-80
2021/12/06 01:52:42;;;;;;;1.00;1.00;;;;;;;3.77;68.05;99672.97;102947;1309;94217;-80
2021/12/06 01:55:14;;;;;;;1.20;1.20;;;;;;;3.79;67.89;99680.50;102809;1314;138022;-80
2021/12/06 01:57:43;;;;;;;1.10;1.10;;;;;;;3.84;68.23;99683.08;102501;1315;107916;-80
2021/12/06 02:00:18;;;;;;;1.00;1.00;;;;;;;3.89;68.00;99683.56;102315;1316;139346;-80
2021/12/06 02:02:47;;;;;;;1.00;1.00;;;;;;;3.93;67.78;99683.69;102748;1317;94332;-80
2021/12/06 02:05:21;;;;;;;1.00;1.00;;;;;;;4.01;67.71;99680.98;102983;1315;94842;-80
2021/12/06 02:07:50;;;;;;;1.00;1.00;;;;;;;4.14;67.33;99673.79;102912;1313;137611;-81
2021/12/06 02:10:19;;;;;;;1.00;1.00;;;;;;;4.17;66.97;99673.22;102967;1313;107662;-80
2021/12/06 02:12:50;;;;;;;0.90;0.90;;;;;;;4.11;67.38;99672.59;102742;1316;138830;-81
2021/12/06 02:18:02;;;;;;;0.90;0.90;;;;;;;4.24;67.15;99668.40;102854;1313;137350;-81
2021/12/06 02:20:30;;;;;;;1.00;1.00;;;;;;;4.32;66.74;99667.77;103034;1316;107440;-80
2021/12/06 02:22:59;;;;;;;0.90;0.90;;;;;;;4.23;66.81;99669.13;102950;1316;94429;-81
2021/12/06 02:25:27;;;;;;;1.00;1.00;;;;;;;4.22;66.79;99669.48;102773;1316;137503;-82
2021/12/06 02:27:55;;;;;;;1.00;1.00;;;;;;;4.27;66.94;99671.00;102923;1316;108629;-79
2021/12/06 02:30:23;;;;;;;1.00;1.00;;;;;;;4.37;66.69;99671.58;102492;1316;138587;-80
2021/12/06 02:32:52;;;;;;;0.90;0.90;;;;;;;4.35;66.32;99674.08;102931;1314;94320;-81
2021/12/06 02:35:23;;;;;;;1.00;1.00;;;;;;;4.21;66.70;99673.19;102823;1316;94814;-81
2021/12/06 02:37:55;;;;;;;1.00;1.00;;;;;;;4.21;66.96;99675.46;102795;1314;136530;-80
2021/12/06 02:40:32;;;;;;;1.00;1.00;;;;;;;4.30;66.93;99672.91;102869;1312;105944;-81
2021/12/06 02:43:02;;;;;;;1.00;1.00;;;;;;;4.30;66.65;99671.31;102585;1316;137253;-80
2021/12/06 02:45:31;;;;;;;1.00;1.00;;;;;;;4.24;66.58;99670.15;102911;1315;94020;-80
2021/12/06 02:48:01;;;;;;;1.00;1.00;;;;;;;4.21;66.82;99673.71;102327;1316;137590;-81
2021/12/06 02:50:36;;;;;;;1.00;1.00;;;;;;;4.18;66.82;99673.56;102835;1316;107418;-81
2021/12/06 02:53:05;;;;;;;0.90;0.90;;;;;;;4.19;66.96;99679.01;102865;1315;96567;-81
2021/12/06 02:55:36;;;;;;;1.20;1.20;;;;;;;4.21;66.74;99680.57;102679;1314;137121;-81
2021/12/06 02:58:21;;;;;;;0.90;0.90;;;;;;;4.22;66.94;99682.13;102822;1316;107966;-81
2021/12/06 03:00:55;;;;;;;0.90;0.90;;;;;;;4.25;67.07;99680.86;102789;1316;138347;-81
2021/12/06 03:03:23;;;;;;;1.00;1.00;;;;;;;4.33;66.78;99679.55;102691;1316;94694;-80
2021/12/06 03:05:52;;;;;;;1.00;1.00;;;;;;;4.38;66.48;99679.30;102412;1316;137937;-81
2021/12/06 03:08:38;;;;;;;0.90;0.90;;;;;;;4.42;66.41;99673.61;102811;1316;107609;-81
2021/12/06 03:11:10;;;;;;;0.90;0.90;;;;;;;4.43;66.29;99673.44;102666;1317;107401;-80
2021/12/06 03:13:39;;;;;;;1.00;1.00;;;;;;;4.39;66.17;99674.19;102397;1314;137976;-81
2021/12/06 03:16:08;;;;;;;1.00;1.00;;;;;;;4.36;66.14;99671.60;102660;1316;94204;-81
2021/12/06 03:18:36;;;;;;;1.20;1.20;;;;;;;4.27;66.27;99674.52;102462;1316;137916;-81
2021/12/06 03:21:05;;;;;;;1.00;1.00;;;;;;;4.22;66.48;99673.88;102836;1316;107420;-81
2021/12/06 03:23:32;;;;;;;1.00;1.00;;;;;;;4.18;66.55;99675.67;102783;1315;94310;-82
2021/12/06 03:26:02;;;;;;;1.00;1.00;;;;;;;4.14;66.67;99672.38;102528;1316;137452;-80
2021/12/06 03:28:40;;;;;;;1.00;1.00;;;;;;;4.13;66.72;99668.00;102750;1317;107922;-79
2021/12/06 03:31:09;;;;;;;0.90;0.90;;;;;;;4.14;66.67;99674.66;102562;1320;137657;-80
2021/12/06 03:33:41;;;;;;;0.90;0.90;;;;;;;4.15;66.58;99674.13;102895;1313;94340;-80
2021/12/06 03:36:10;;;;;;;0.90;0.90;;;;;;;4.13;66.51;99679.61;102829;1316;136771;-81
2021/12/06 03:38:38;;;;;;;1.00;1.00;;;;;;;4.08;66.84;99684.77;102714;1317;105989;-80
2021/12/06 03:41:08;;;;;;;1.00;1.00;;;;;;;4.07;66.89;99679.49;102629;1314;106858;-80
2021/12/06 03:43:37;;;;;;;1.00;1.00;;;;;;;4.07;66.80;99683.20;102444;1312;137364;-79
2021/12/06 03:46:08;;;;;;;1.00;1.00;;;;;;;3.91;67.37;99688.10;102509;1314;94162;-80
2021/12/06 03:48:37;;;;;;;1.00;1.00;;;;;;;3.88;67.40;99689.54;102528;1313;136406;-80
2021/12/06 03:51:06;;;;;;;1.00;1.00;;;;;;;3.89;67.51;99689.52;102457;1317;106092;-79
2021/12/06 03:53:34;;;;;;;0.90;0.90;;;;;;;3.80;67.49;99692.77;102459;1316;94356;-80
2021/12/06 03:56:03;;;;;;;1.00;1.00;;;;;;;3.77;67.55;99693.34;102647;1316;137392;-81
2021/12/06 03:58:33;;;;;;;1.00;1.00;;;;;;;3.72;67.91;99697.95;102574;1316;109517;-79
2021/12/06 04:01:03;;;;;;;0.90;0.90;;;;;;;3.82;67.73;99701.19;102432;1316;136567;-79
2021/12/06 04:03:36;;;;;;;0.90;0.90;;;;;;;3.92;67.44;99701.09;102832;1316;95905;-79
2021/12/06 04:06:06;;;;;;;1.00;1.00;;;;;;;3.81;67.32;99699.96;102478;1315;137462;-80
2021/12/06 04:08:34;;;;;;;1.00;1.00;;;;;;;3.68;67.79;99703.26;102557;1316;108032;-80
2021/12/06 04:11:03;;;;;;;1.00;1.00;;;;;;;3.64;68.10;99709.95;102754;1316;109189;-80
2021/12/06 04:13:34;;;;;;;1.00;1.00;;;;;;;3.66;68.07;99714.33;102773;1316;137294;-80
2021/12/06 04:16:03;;;;;;;1.00;1.00;;;;;;;3.70;67.96;99715.53;102668;1311;95187;-79
2021/12/06 04:18:33;;;;;;;1.10;1.10;;;;;;;3.78;67.74;99714.57;102426;1317;136640;-78
2021/12/06 04:21:02;;;;;;;0.90;0.90;;;;;;;3.79;67.72;99721.23;102459;1315;108168;-78
2021/12/06 04:23:32;;;;;;;0.90;0.90;;;;;;;3.77;67.81;99727.05;102630;1316;94533;-79
2021/12/06 04:26:02;;;;;;;0.90;0.90;;;;;;;3.69;67.99;99733.09;102279;1312;136976;-79
2021/12/06 04:28:32;;;;;;;1.00;1.00;;;;;;;3.54;68.37;99738.66;102386;1317;107960;-78
2021/12/06 04:31:04;;;;;;;1.00;1.00;;;;;;;3.56;68.19;99745.67;102501;1315;136840;-79
2021/12/06 04:33:32;;;;;;;1.00;1.00;;;;;;;3.57;68.44;99750.39;102514;1317;94389;-79
2021/12/06 04:36:02;;;;;;;1.00;1.00;;;;;;;3.61;68.37;99754.40;102468;1315;137368;-80
2021/12/06 04:38:31;;;;;;;1.00;1.00;;;;;;;3.61;68.28;99760.89;102488;1316;109495;-79
2021/12/06 04:41:00;;;;;;;1.00;1.00;;;;;;;3.62;68.40;99763.34;102417;1318;107509;-79
2021/12/06 04:43:28;;;;;;;1.00;1.00;;;;;;;3.65;68.27;99765.27;102285;1316;136527;-78
2021/12/06 04:45:57;;;;;;;1.10;1.10;;;;;;;3.69;68.11;99772.95;102445;1317;94461;-79
2021/12/06 04:48:25;;;;;;;1.10;1.10;;;;;;;3.65;68.20;99777.89;102288;1316;138040;-79
2021/12/06 04:50:53;;;;;;;1.00;1.00;;;;;;;3.48;68.91;99777.50;102278;1318;107083;-79
2021/12/06 04:53:25;;;;;;;1.00;1.00;;;;;;;3.55;68.86;99784.98;102476;1316;95620;-78
2021/12/06 04:56:11;;;;;;;1.00;1.00;;;;;;;3.63;68.77;99791.08;102394;1316;137138;-79
2021/12/06 04:58:53;;;;;;;1.00;1.00;;;;;;;3.76;68.55;99792.91;102440;1316;107848;-78
2021/12/06 05:01:27;;;;;;;1.00;1.00;;;;;;;3.74;68.42;99801.52;102178;1317;138755;-79
2021/12/06 05:04:00;;;;;;;0.90;0.90;;;;;;;3.90;68.07;99800.86;102441;1316;94326;-79
2021/12/06 05:06:33;;;;;;;1.00;1.00;;;;;;;3.98;67.85;99798.86;102137;1316;137798;-78
2021/12/06 05:09:13;;;;;;;1.00;1.00;;;;;;;3.96;67.83;99803.98;102399;1314;107875;-79
2021/12/06 05:11:42;;;;;;;0.90;0.90;;;;;;;3.96;67.47;99806.59;102082;1315;138416;-78
2021/12/06 05:14:13;;;;;;;1.00;1.00;;;;;;;3.97;67.89;99804.48;102216;1317;94447;-78
2021/12/06 05:16:41;;;;;;;1.10;1.10;;;;;;;4.09;67.39;99801.75;102335;1315;94798;-77
2021/12/06 05:19:10;;;;;;;1.00;1.00;;;;;;;4.11;67.37;99800.66;102367;1315;137480;-78
2021/12/06 05:21:39;;;;;;;1.00;1.00;;;;;;;3.96;67.21;99797.10;102393;1316;108489;-78
2021/12/06 05:24:08;;;;;;;1.00;1.00;;;;;;;3.92;67.61;99793.11;102466;1316;138255;-78
2021/12/06 05:26:37;;;;;;;1.00;1.00;;;;;;;3.96;67.56;99793.25;102527;1314;94259;-78
2021/12/06 05:29:16;;;;;;;1.10;1.10;;;;;;;3.87;67.53;99789.29;102312;1314;109990;-78
2021/12/06 05:31:54;;;;;;;1.00;1.00;;;;;;;3.89;67.55;99783.31;102252;1318;138024;-78
2021/12/06 05:34:30;;;;;;;1.00;1.00;;;;;;;3.95;67.39;99776.76;102326;1318;94455;-78
2021/12/06 05:36:59;;;;;;;1.00;1.00;;;;;;;3.83;67.31;99776.15;102186;1316;137142;-77
2021/12/06 05:39:30;;;;;;;1.00;1.00;;;;;;;3.78;67.58;99776.38;102389;1316;108883;-78
2021/12/06 05:42:03;;;;;;;1.10;1.10;;;;;;;3.86;67.61;99770.16;102275;1314;138177;-77
2021/12/06 05:44:32;;;;;;;1.00;1.00;;;;;;;3.87;67.66;99770.14;102364;1315;94370;-78
2021/12/06 05:47:00;;;;;;;1.10;1.10;;;;;;;3.86;67.51;99761.56;102461;1317;94507;-79
2021/12/06 05:49:28;;;;;;;1.10;1.10;;;;;;;3.77;67.47;99755.84;102266;1314;137478;-77
2021/12/06 05:51:56;;;;;;;1.00;1.00;;;;;;;3.70;67.75;99760.13;102392;1309;105168;-78
2021/12/06 05:54:25;;;;;;;1.10;1.10;;;;;;;3.68;67.84;99759.95;102223;1318;137756;-78
2021/12/06 05:56:53;;;;;;;1.10;1.10;;;;;;;3.60;68.18;99759.85;102388;1316;94352;-78
2021/12/06 05:59:21;;;;;;;1.10;1.10;;;;;;;3.55;68.28;99759.90;102205;1314;107949;-77
2021/12/06 06:01:52;;;;;;;1.00;1.00;;;;;;;3.58;68.30;99755.83;102359;1313;138906;-76
2021/12/06 06:04:21;;;;;;;1.00;1.00;;;;;;;3.59;68.13;99755.48;102503;1315;94392;-77
2021/12/06 06:06:49;;;;;;;1.00;1.00;;;;;;;3.59;68.11;99754.23;102455;1309;137102;-78
2021/12/06 06:09:18;;;;;;;1.10;1.10;;;;;;;3.55;68.08;99759.55;102414;1313;107711;-79
2021/12/06 06:11:46;;;;;;;1.00;1.00;;;;;;;3.47;68.24;99761.70;102244;1313;138285;-78
2021/12/06 06:14:15;;;;;;;1.00;1.00;;;;;;;3.44;68.34;99765.77;102356;1315;94421;-77
2021/12/06 06:16:53;;;;;;;1.10;1.10;;;;;;;3.42;68.31;99770.52;102322;1315;95848;-78
2021/12/06 06:19:24;;;;;;;1.10;1.10;;;;;;;3.42;68.14;99774.75;102427;1315;137387;-78
2021/12/06 06:21:53;;;;;;;1.00;1.00;;;;;;;3.41;68.42;99778.60;102302;1314;107498;-78
2021/12/06 06:24:21;;;;;;;1.00;1.00;;;;;;;3.35;68.68;99790.23;102339;1315;137075;-78
2021/12/06 06:26:49;;;;;;;1.20;1.20;;;;;;;3.40;68.70;99800.36;102494;1316;94259;-79
2021/12/06 06:29:17;;;;;;;1.10;1.10;;;;;;;3.54;68.24;99805.17;102266;1315;107959;-78
2021/12/06 06:31:45;;;;;;;1.00;1.00;;;;;;;3.60;67.97;99814.96;102412;1316;137856;-79
2021/12/06 06:34:13;;;;;;;1.10;1.10;;;;;;;3.56;67.83;99823.77;102532;1314;94381;-78
2021/12/06 06:36:41;;;;;;;1.00;1.00;;;;;;;3.36;68.36;99831.45;102250;1314;137179;-77
2021/12/06 06:39:10;;;;;;;1.10;1.10;;;;;;;3.08;68.78;99840.73;102267;1315;106827;-77
2021/12/06 06:41:38;;;;;;;1.00;1.00;;;;;;;2.98;69.47;99850.58;102336;1312;108118;-79
2021/12/06 06:44:06;;;;;;;1.00;1.00;;;;;;;3.08;69.71;99855.63;102496;1313;137286;-78
2021/12/06 06:46:35;;;;;;;1.20;1.20;;;;;;;3.07;69.31;99859.14;102493;1315;94337;-78
2021/12/06 06:49:04;;;;;;;1.10;1.10;;;;;;;3.10;69.42;99857.38;102170;1313;137604;-78
2021/12/06 06:51:32;;;;;;;1.00;1.00;;;;;;;3.16;69.62;99861.38;102000;1315;107476;-78
2021/12/06 06:54:00;;;;;;;1.00;1.00;;;;;;;3.29;69.42;99867.80;102227;1313;139558;-78
2021/12/06 06:56:29;;;;;;;1.10;1.10;;;;;;;3.42;68.79;99875.98;102357;1314;94305;-78
2021/12/06 06:58:57;;;;;;;1.10;1.10;;;;;;;3.48;68.46;99877.70;102247;1315;106719;-79
2021/12/06 07:01:25;;;;;;;1.20;1.20;;;;;;;3.56;68.53;99877.84;102116;1312;138154;-78
2021/12/06 07:03:54;;;;;;;1.00;1.00;;;;;;;3.60;68.24;99874.47;102263;1316;95435;-79
2021/12/06 07:06:24;;;;;;;1.00;1.00;;;;;;;3.53;68.02;99871.36;102056;1316;137379;-78
2021/12/06 07:08:54;;;;;;;1.10;1.10;;;;;;;3.48;68.24;99866.48;102409;1315;108025;-79
2021/12/06 07:11:27;;;;;;;1.10;1.10;;;;;;;3.51;68.62;99860.48;102422;1315;107473;-78
2021/12/06 07:13:55;;;;;;;1.10;1.10;;;;;;;3.62;68.00;99857.77;102443;1314;138534;-78
2021/12/06 07:16:25;;;;;;;1.00;1.00;;;;;;;3.55;67.65;99852.73;102207;1316;94384;-79
2021/12/06 07:18:53;;;;;;;1.20;1.20;;;;;;;3.46;67.97;99855.77;102314;1316;137845;-78
2021/12/06 07:21:21;;;;;;;1.20;1.20;;;;;;;3.42;67.65;99864.74;102487;1316;107656;-78
2021/12/06 07:23:49;;;;;;;1.10;1.10;;;;;;;3.40;68.19;99861.44;102389;1315;138135;-79
2021/12/06 07:26:20;;;;;;;1.10;1.10;;;;;;;3.43;67.98;99856.32;102320;1315;95221;-80
2021/12/06 07:28:50;;;;;;;1.10;1.10;;;;;;;3.43;68.20;99854.58;103001;1313;108844;-78
2021/12/06 07:31:18;;;;;;;1.10;1.10;;;;;;;3.47;68.14;99859.81;102504;1316;138258;-78
2021/12/06 07:33:47;;;;;;;1.10;1.10;;;;;;;3.54;67.87;99869.08;102522;1316;95431;-78
2021/12/06 07:36:20;;;;;;;1.00;1.00;;;;;;;3.55;67.74;99870.12;102415;1314;137566;-78
2021/12/06 07:38:50;;;;;;;1.20;1.20;;;;;;;3.47;67.81;99870.70;102458;1316;107871;-77
2021/12/06 07:41:20;;;;;;;1.10;1.10;;;;;;;3.41;67.90;99862.83;102284;1316;108892;-78
2021/12/06 07:43:48;;;;;;;1.00;1.00;;;;;;;3.35;68.23;99855.66;102808;1309;137911;-78
2021/12/06 07:46:19;;;;;;;1.00;1.00;;;;;;;3.28;68.44;99858.17;102423;1313;95277;-79
2021/12/06 07:48:52;;;;;;;1.20;1.20;;;;;;;3.21;68.62;99865.21;102209;1313;137427;-78
2021/12/06 07:51:24;;;;;;;1.10;1.10;;;;;;;3.26;68.55;99870.63;102279;1314;109522;-78
2021/12/06 07:53:53;;;;;;;1.00;1.00;;;;;;;3.29;68.52;99872.36;102039;1315;137945;-79
2021/12/06 07:56:23;;;;;;;1.10;1.10;;;;;;;3.29;68.43;99874.83;102417;1315;95265;-78
2021/12/06 07:58:51;;;;;;;1.10;1.10;;;;;;;3.23;68.67;99879.24;102520;1315;107895;-78
2021/12/06 08:01:19;;;;;;;1.10;1.10;;;;;;;3.28;68.69;99881.13;102229;1313;137863;-79
2021/12/06 08:03:47;;;;;;;1.10;1.10;;;;;;;3.35;68.37;99880.58;102306;1314;95629;-78
2021/12/06 08:06:16;;;;;;;1.10;1.10;;;;;;;3.36;68.07;99877.06;102046;1315;137698;-79
2021/12/06 08:08:44;;;;;;;1.20;1.20;;;;;;;3.29;68.20;99864.48;102258;1315;107813;-78
2021/12/06 08:11:16;;;;;;;1.10;1.10;;;;;;;3.27;68.45;99862.90;102291;1316;109552;-79
2021/12/06 08:13:50;;;;;;;1.10;1.10;;;;;;;3.35;68.45;99868.11;102553;1313;138722;-78
2021/12/06 08:16:21;;;;;;;1.10;1.10;;;;;;;3.32;68.19;99874.47;102685;1316;95271;-79
2021/12/06 08:18:49;;;;;;;1.20;1.20;;;;;;;3.28;68.35;99882.20;102500;1314;137677;-79
2021/12/06 08:21:19;;;;;;;1.20;1.20;;;;;;;3.22;68.54;99887.32;102437;1313;108905;-78
2021/12/06 08:23:49;;;;;;;1.10;1.10;;;;;;;3.10;68.51;99891.75;102570;1313;138778;-78
2021/12/06 08:26:19;;;;;;;1.10;1.10;;;;;;;3.04;69.00;99894.23;102393;1318;95185;-79
2021/12/06 08:28:48;;;;;;;1.10;1.10;;;;;;;3.06;69.00;99901.92;102404;1314;107847;-78
2021/12/06 08:31:18;;;;;;;1.20;1.20;;;;;;;3.06;69.08;99902.81;102038;1317;137971;-78
2021/12/06 08:33:47;;;;;;;1.00;1.00;;;;;;;2.97;69.35;99904.60;102513;1310;95195;-80
2021/12/06 08:36:17;;;;;;;1.20;1.20;;;;;;;2.99;69.33;99903.20;102235;1318;138047;-79
2021/12/06 08:38:46;;;;;;;1.20;1.20;;;;;;;2.99;69.51;99907.39;102331;1315;107333;-78
2021/12/06 08:41:18;;;;;;;1.30;1.30;;;;;;;3.05;69.17;99909.84;102186;1316;108606;-78
2021/12/06 08:43:48;;;;;;;1.20;1.20;;;;;;;3.12;68.97;99908.76;102158;1315;138042;-78
2021/12/06 08:46:26;;;;;;;1.10;1.10;;;;;;;3.14;68.76;99912.44;102423;1315;95294;-78
2021/12/06 08:48:55;;;;;;;1.10;1.10;;;;;;;3.02;69.23;99921.06;102410;1319;137786;-78
2021/12/06 08:51:44;;;;;;;1.20;1.20;;;;;;;3.02;68.84;99929.14;102438;1315;108883;-78
2021/12/06 08:54:14;;;;;;;1.00;1.00;;;;;;;3.04;68.83;99928.27;102595;1315;138208;-78
2021/12/06 08:56:43;;;;;;;1.10;1.10;;;;;;;3.05;68.91;99939.30;102084;1314;95275;-78
2021/12/06 08:59:12;;;;;;;1.20;1.20;;;;;;;3.11;68.86;99946.30;102263;1313;107725;-78
2021/12/06 09:01:41;;;;;;;1.10;1.10;;;;;;;3.20;68.75;99950.66;102170;1316;137755;-78
2021/12/06 09:04:34;;;;;;;1.00;1.00;;;;;;;3.26;68.32;99941.69;102065;1316;95848;-78
2021/12/06 09:07:10;;;;;;;1.00;1.00;;;;;;;3.19;68.30;99939.96;102043;1317;137647;-79
2021/12/06 09:09:45;;;;;;;1.10;1.10;;;;;;;3.20;68.41;99949.08;102387;1318;108962;-78
2021/12/06 09:12:17;;;;;;;1.10;1.10;;;;;;;3.24;68.35;99951.52;102283;1314;138612;-78
2021/12/06 09:14:45;;;;;;;1.10;1.10;;;;;;;3.29;68.19;99950.63;102106;1315;95409;-79
2021/12/06 09:17:14;;;;;;;1.00;1.00;;;;;;;3.34;67.98;99953.58;102365;1318;95572;-79
2021/12/06 09:19:42;;;;;;;1.10;1.10;;;;;;;3.29;67.97;99954.48;102055;1318;137332;-77
2021/12/06 09:22:11;;;;;;;1.20;1.20;;;;;;;3.25;68.19;99952.73;102195;1316;108237;-78
2021/12/06 09:24:40;;;;;;;1.00;1.00;;;;;;;3.26;68.09;99949.94;102374;1314;138193;-77
2021/12/06 09:27:09;;;;;;;1.30;1.30;;;;;;;3.29;68.15;99954.48;102156;1315;95235;-77
2021/12/06 09:29:38;;;;;;;1.10;1.10;;;;;;;3.22;67.86;99950.83;102277;1312;107752;-78
2021/12/06 09:32:09;;;;;;;1.00;1.00;;;;;;;3.16;68.12;99954.17;102119;1319;138295;-78
2021/12/06 09:34:40;;;;;;;1.20;1.20;;;;;;;3.21;68.41;99954.85;102392;1314;95206;-78
2021/12/06 09:37:08;;;;;;;1.10;1.10;;;;;;;3.26;68.29;99955.20;102183;1316;138323;-78
2021/12/06 09:39:37;;;;;;;1.10;1.10;;;;;;;3.28;67.91;99956.23;102121;1316;108806;-78
2021/12/06 09:42:05;;;;;;;1.20;1.20;;;;;;;3.19;67.75;99956.27;102049;1315;137451;-78
2021/12/06 09:44:34;;;;;;;1.10;1.10;;;;;;;3.07;68.08;99958.58;102357;1315;95266;-79
2021/12/06 09:47:03;;;;;;;1.20;1.20;;;;;;;3.06;68.25;99949.64;102135;1314;95350;-80
2021/12/06 09:49:32;;;;;;;1.00;1.00;;;;;;;3.06;68.24;99942.98;102043;1316;138128;-79
2021/12/06 09:52:03;;;;;;;1.10;1.10;;;;;;;2.97;68.31;99938.27;102153;1318;109934;-79
2021/12/06 09:54:35;;;;;;;1.20;1.20;;;;;;;2.99;68.55;99935.11;102222;1316;137915;-78
2021/12/06 09:57:05;;;;;;;1.10;1.10;;;;;;;2.96;68.33;99936.70;102194;1315;95226;-78
2021/12/06 09:59:35;;;;;;;1.00;1.00;;;;;;;3.04;68.20;99941.06;102373;1316;107858;-78
2021/12/06 10:02:15;;;;;;;1.10;1.10;;;;;;;3.00;68.09;99941.05;102151;1315;137231;-78
2021/12/06 10:04:48;;;;;;;1.10;1.10;;;;;;;2.93;68.24;99939.86;102146;1315;95714;-79
2021/12/06 10:07:18;;;;;;;1.10;1.10;;;;;;;2.92;68.30;99941.27;102169;1315;137742;-78
2021/12/06 10:09:46;;;;;;;1.00;1.00;;;;;;;2.97;68.75;99943.70;102154;1319;107906;-78
2021/12/06 10:12:16;;;;;;;1.10;1.10;;;;;;;2.95;67.74;99944.58;101906;1315;138119;-78
2021/12/06 10:14:45;;;;;;;1.20;1.20;;;;;;;2.76;68.49;99946.73;102410;1316;95371;-78
2021/12/06 10:17:15;;;;;;;1.20;1.20;;;;;;;2.77;68.80;99940.41;102571;1314;95367;-77
2021/12/06 10:19:44;;;;;;;1.30;1.30;;;;;;;2.86;68.47;99943.90;102048;1314;137710;-78
2021/12/06 10:22:14;;;;;;;1.10;1.10;;;;;;;2.84;68.46;99937.09;102410;1315;109936;-79
2021/12/06 10:24:53;;;;;;;1.20;1.20;;;;;;;2.81;68.26;99939.89;102246;1316;137404;-79
2021/12/06 10:27:21;;;;;;;1.20;1.20;;;;;;;2.79;68.59;99939.89;101916;1318;95212;-79
2021/12/06 10:29:54;;;;;;;1.00;1.00;;;;;;;2.90;68.06;99941.61;102138;1318;137857;-78
2021/12/06 10:32:26;;;;;;;1.10;1.10;;;;;;;2.91;68.13;99944.59;102245;1318;107497;-78
2021/12/06 10:35:02;;;;;;;1.20;1.20;;;;;;;2.92;68.17;99944.59;102077;1315;95249;-77
2021/12/06 10:37:46;;;;;;;1.10;1.10;;;;;;;2.99;68.22;99947.75;101948;1316;138133;-79
2021/12/06 10:40:30;;;;;;;1.10;1.10;;;;;;;3.04;68.16;99945.10;102448;1315;108053;-79
2021/12/06 10:43:01;;;;;;;1.00;1.00;;;;;;;3.05;67.71;99948.59;102156;1316;137393;-78
2021/12/06 10:45:35;;;;;;;1.20;1.20;;;;;;;2.99;67.63;99952.83;102277;1315;95171;-78
2021/12/06 10:48:12;;;;;;;1.20;1.20;;;;;;;2.92;67.95;99957.05;102320;1313;138163;-78
2021/12/06 10:50:44;;;;;;;1.00;1.00;;;;;;;2.99;67.98;99956.52;102313;1315;107940;-78
2021/12/06 10:53:14;;;;;;;1.10;1.10;;;;;;;3.02;67.83;99953.17;102274;1315;110033;-77
2021/12/06 10:55:43;;;;;;;1.10;1.10;;;;;;;2.98;67.16;99951.95;102316;1315;137765;-78
2021/12/06 10:58:14;;;;;;;1.10;1.10;;;;;;;2.89;67.49;99953.20;102593;1314;95242;-78
2021/12/06 11:00:51;;;;;;;1.00;1.00;;;;;;;2.87;67.74;99952.50;102449;1316;137651;-78
2021/12/06 11:03:36;;;;;;;1.10;1.10;;;;;;;2.87;67.55;99961.62;102197;1315;108788;-77
2021/12/06 11:06:09;;;;;;;1.10;1.10;;;;;;;2.81;67.70;99963.38;102185;1314;138083;-78
2021/12/06 11:08:39;;;;;;;1.10;1.10;;;;;;;2.85;67.41;99963.91;102449;1314;95273;-78
2021/12/06 11:11:12;;;;;;;1.10;1.10;;;;;;;2.77;67.99;99964.79;102459;1315;107876;-79
2021/12/06 11:13:49;;;;;;;1.20;1.20;;;;;;;2.86;67.90;99958.11;102158;1316;137499;-78
2021/12/06 11:16:29;;;;;;;1.20;1.20;;;;;;;2.90;67.51;99960.02;102501;1316;95249;-78
2021/12/06 11:19:00;;;;;;;1.00;1.00;;;;;;;2.90;67.37;99962.48;102193;1315;139317;-78
2021/12/06 11:21:36;;;;;;;1.00;1.00;;;;;;;2.90;67.59;99958.98;102256;1315;108591;-78
2021/12/06 11:24:15;;;;;;;1.10;1.10;;;;;;;2.87;67.23;99959.34;102324;1316;136539;-78
2021/12/06 11:26:53;;;;;;;1.10;1.10;;;;;;;2.90;67.22;99951.27;102548;1315;95621;-78
2021/12/06 11:29:25;;;;;;;1.00;1.00;;;;;;;2.88;67.31;99950.39;102721;1315;95234;-78
2021/12/06 11:32:00;;;;;;;1.00;1.00;;;;;;;2.90;67.43;99955.48;102682;1315;138331;-78
2021/12/06 11:34:37;;;;;;;1.20;1.20;;;;;;;2.95;67.42;99952.64;102566;1318;110017;-79
2021/12/06 11:37:32;;;;;;;1.20;1.20;;;;;;;2.89;67.07;99953.72;102719;1317;138228;-79
2021/12/06 11:40:12;;;;;;;1.00;1.00;;;;;;;2.90;67.55;99952.31;102404;1317;95211;-78
2021/12/06 11:42:56;;;;;;;1.10;1.10;;;;;;;2.97;67.33;99952.47;102303;1315;136268;-78
2021/12/06 11:45:43;;;;;;;1.20;1.20;;;;;;;2.88;67.49;99957.41;102485;1315;109124;-79
2021/12/06 11:48:16;;;;;;;1.20;1.20;;;;;;;2.93;67.87;99960.55;102307;1314;138080;-79
2021/12/06 11:50:59;;;;;;;1.10;1.10;;;;;;;3.07;67.36;99961.91;102187;1316;95264;-79
2021/12/06 11:53:34;;;;;;;1.10;1.10;;;;;;;3.09;67.10;99963.66;102328;1315;109064;-79
2021/12/06 11:56:13;;;;;;;1.20;1.20;;;;;;;3.01;66.84;99961.77;102376;1315;137570;-79
2021/12/06 11:58:46;;;;;;;1.20;1.20;;;;;;;2.95;66.63;99965.98;102523;1316;95317;-78
2021/12/06 12:01:22;;;;;;;1.30;1.30;;;;;;;2.91;66.70;99971.94;102485;1316;137625;-77